createdAt,value
2018-01-27T00:01:39.987Z,101780
2018-01-27T00:04:09.863Z,101760
2018-01-27T00:06:39.728Z,101807
2018-01-27T00:09:09.582Z,101801
2018-01-27T00:11:39.441Z,101801
2018-01-27T00:14:09.375Z,101798
2018-01-27T00:16:39.983Z,101806
2018-01-27T00:19:10.024Z,101811
2018-01-27T00:21:39.885Z,101808
2018-01-27T00:24:09.757Z,101819
2018-01-27T00:26:39.695Z,101813
2018-01-27T00:29:09.608Z,101814
2018-01-27T00:31:39.500Z,101807
2018-01-27T00:34:09.419Z,101812
2018-01-27T00:36:39.293Z,101811
2018-01-27T00:39:09.140Z,101813
2018-01-27T00:41:39.054Z,101801
2018-01-27T00:44:08.874Z,101809
2018-01-27T00:46:38.773Z,101797
2018-01-27T00:49:08.611Z,101797
2018-01-27T00:51:38.463Z,101804
2018-01-27T00:54:08.427Z,101802
2018-01-27T00:56:38.472Z,101807
2018-01-27T00:59:08.413Z,101802
2018-01-27T01:01:38.542Z,101805
2018-01-27T01:04:08.426Z,101806
2018-01-27T01:06:38.273Z,101809
2018-01-27T01:09:08.208Z,101800
2018-01-27T01:11:38.050Z,101799
2018-01-27T01:14:08.065Z,101804
2018-01-27T01:16:37.928Z,101802
2018-01-27T01:19:10.746Z,101811
2018-01-27T01:21:42.545Z,101823
2018-01-27T01:24:22.322Z,101820
2018-01-27T01:26:52.379Z,101815
2018-01-27T01:29:22.271Z,101821
2018-01-27T01:31:52.089Z,101824
2018-01-27T01:34:21.978Z,101819
2018-01-27T01:36:51.826Z,101815
2018-01-27T01:39:21.704Z,101821
2018-01-27T01:41:51.519Z,101818
2018-01-27T01:44:27.588Z,101818
2018-01-27T01:46:57.421Z,101812
2018-01-27T01:49:27.252Z,101815
2018-01-27T01:51:57.149Z,101817
2018-01-27T01:54:27.003Z,101821
2018-01-27T01:56:56.893Z,101812
2018-01-27T01:59:26.800Z,101815
2018-01-27T02:01:56.727Z,101811
2018-01-27T02:04:26.570Z,101812
2018-01-27T02:06:56.415Z,101810
2018-01-27T02:09:26.499Z,101807
2018-01-27T02:11:56.503Z,101811
2018-01-27T02:14:26.361Z,101810
2018-01-27T02:16:56.218Z,101820
2018-01-27T02:19:26.158Z,101813
2018-01-27T02:21:55.986Z,101818
2018-01-27T02:24:25.903Z,101818
2018-01-27T02:26:55.799Z,101817
2018-01-27T02:29:25.717Z,101819
2018-01-27T02:31:55.596Z,101813
2018-01-27T02:34:25.503Z,101818
2018-01-27T02:36:55.453Z,101815
2018-01-27T02:39:25.335Z,101810
2018-01-27T02:41:55.224Z,101822
2018-01-27T02:44:25.077Z,101815
2018-01-27T02:46:54.990Z,101813
2018-01-27T02:49:24.925Z,101814
2018-01-27T02:51:54.837Z,101818
2018-01-27T02:54:24.699Z,101824
2018-01-27T02:56:54.556Z,101820
2018-01-27T02:59:24.428Z,101826
2018-01-27T03:01:54.301Z,101837
2018-01-27T03:04:24.192Z,101824
2018-01-27T03:06:54.096Z,101831
2018-01-27T03:09:24.015Z,101833
2018-01-27T03:11:53.869Z,101837
2018-01-27T03:14:23.824Z,101842
2018-01-27T03:16:53.677Z,101839
2018-01-27T03:19:23.516Z,101841
2018-01-27T03:21:53.390Z,101836
2018-01-27T03:24:23.238Z,101838
2018-01-27T03:26:53.095Z,101846
2018-01-27T03:29:22.967Z,101853
2018-01-27T03:31:52.832Z,101849
2018-01-27T03:34:23.078Z,101870
2018-01-27T03:36:52.960Z,101856
2018-01-27T03:39:22.933Z,101857
2018-01-27T03:41:52.810Z,101857
2018-01-27T03:44:22.672Z,101856
2018-01-27T03:46:52.568Z,101859
2018-01-27T03:49:22.553Z,101857
2018-01-27T03:51:52.422Z,101870
2018-01-27T03:54:22.486Z,101870
2018-01-27T03:56:52.534Z,101872
2018-01-27T03:59:22.455Z,101881
2018-01-27T04:01:52.346Z,101883
2018-01-27T04:04:22.743Z,101887
2018-01-27T04:06:52.569Z,101892
2018-01-27T04:09:22.434Z,101895
2018-01-27T04:11:52.340Z,101894
2018-01-27T04:14:22.364Z,101899
2018-01-27T04:16:52.285Z,101904
2018-01-27T04:19:22.398Z,101917
2018-01-27T04:21:52.244Z,101927
2018-01-27T04:24:22.199Z,101916
2018-01-27T04:26:52.084Z,101924
2018-01-27T04:29:21.969Z,101923
2018-01-27T04:31:51.848Z,101918
2018-01-27T04:34:21.845Z,101926
2018-01-27T04:36:52.058Z,101932
2018-01-27T04:39:21.960Z,101937
2018-01-27T04:41:51.831Z,101928
2018-01-27T04:44:21.753Z,101936
2018-01-27T04:46:51.613Z,101954
2018-01-27T04:49:21.532Z,101944
2018-01-27T04:51:51.390Z,101947
2018-01-27T04:54:21.244Z,101949
2018-01-27T04:56:51.117Z,101950
2018-01-27T04:59:20.977Z,101957
2018-01-27T05:01:51.005Z,101954
2018-01-27T05:04:20.859Z,101961
2018-01-27T05:06:50.852Z,101958
2018-01-27T05:09:20.673Z,101953
2018-01-27T05:11:50.509Z,101953
2018-01-27T05:14:21.879Z,101950
2018-01-27T05:16:51.702Z,101956
2018-01-27T05:19:21.672Z,101969
2018-01-27T05:21:51.576Z,101966
2018-01-27T05:24:21.508Z,101966
2018-01-27T05:26:51.420Z,101973
2018-01-27T05:29:21.272Z,101972
2018-01-27T05:31:51.149Z,101968
2018-01-27T05:34:21.044Z,101980
2018-01-27T05:36:50.886Z,101975
2018-01-27T05:39:20.740Z,101987
2018-01-27T05:41:50.609Z,101969
2018-01-27T05:44:20.467Z,101976
2018-01-27T05:46:50.325Z,101973
2018-01-27T05:49:20.190Z,101969
2018-01-27T05:51:50.109Z,101967
2018-01-27T05:54:19.933Z,101972
2018-01-27T05:56:49.784Z,101974
2018-01-27T05:59:19.612Z,101978
2018-01-27T06:01:49.440Z,101985
2018-01-27T06:04:19.295Z,101984
2018-01-27T06:06:49.166Z,101985
2018-01-27T06:09:19.049Z,101988
2018-01-27T06:11:48.999Z,101988
2018-01-27T06:14:18.912Z,101992
2018-01-27T06:16:48.765Z,101997
2018-01-27T06:19:18.719Z,101996
2018-01-27T06:21:48.604Z,101991
2018-01-27T06:24:18.492Z,101997
2018-01-27T06:26:48.438Z,102001
2018-01-27T06:29:18.275Z,102004
2018-01-27T06:31:48.224Z,102009
2018-01-27T06:34:18.082Z,102006
2018-01-27T06:36:47.955Z,102018
2018-01-27T06:39:17.770Z,102017
2018-01-27T06:41:47.626Z,102019
2018-01-27T06:44:17.453Z,102028
2018-01-27T06:46:47.317Z,102025
2018-01-27T06:49:17.220Z,102024
2018-01-27T06:51:47.074Z,102029
2018-01-27T06:54:16.949Z,102034
2018-01-27T06:56:46.881Z,102039
2018-01-27T06:59:16.897Z,102045
2018-01-27T07:01:46.747Z,102040
2018-01-27T07:04:16.684Z,102039
2018-01-27T07:06:46.521Z,102048
2018-01-27T07:09:16.358Z,102044
2018-01-27T07:11:46.284Z,102041
2018-01-27T07:14:16.133Z,102046
2018-01-27T07:16:46.020Z,102051
2018-01-27T07:19:15.855Z,102044
2018-01-27T07:21:45.716Z,102055
2018-01-27T07:24:15.758Z,102058
2018-01-27T07:26:45.626Z,102059
2018-01-27T07:29:15.462Z,102052
2018-01-27T07:31:45.400Z,102061
2018-01-27T07:34:15.260Z,102057
2018-01-27T07:36:45.084Z,102060
2018-01-27T07:39:15.102Z,102056
2018-01-27T07:41:44.916Z,102070
2018-01-27T07:44:14.789Z,102073
2018-01-27T07:46:44.673Z,102074
2018-01-27T07:49:14.581Z,102086
2018-01-27T07:51:44.450Z,102088
2018-01-27T07:54:14.295Z,102086
2018-01-27T07:56:44.178Z,102071
2018-01-27T07:59:14.022Z,102083
2018-01-27T08:01:43.934Z,102081
2018-01-27T08:04:13.805Z,102087
2018-01-27T08:06:43.739Z,102095
2018-01-27T08:09:13.699Z,102100
2018-01-27T08:11:43.556Z,102096
2018-01-27T08:14:13.375Z,102087
2018-01-27T08:16:43.303Z,102098
2018-01-27T08:19:13.380Z,102090
2018-01-27T08:21:43.256Z,102096
2018-01-27T08:24:13.127Z,102100
2018-01-27T08:26:43.029Z,102098
2018-01-27T08:29:12.886Z,102096
2018-01-27T08:31:42.735Z,102103
2018-01-27T08:34:12.584Z,102104
2018-01-27T08:36:42.490Z,102099
2018-01-27T08:39:12.344Z,102089
2018-01-27T08:41:42.232Z,102090
2018-01-27T08:44:12.221Z,102081
2018-01-27T08:46:42.222Z,102087
2018-01-27T08:49:12.371Z,102091
2018-01-27T08:51:43.962Z,102086
2018-01-27T08:54:13.821Z,102089
2018-01-27T08:56:43.794Z,102099
2018-01-27T08:59:13.837Z,102101
2018-01-27T09:01:43.798Z,102102
2018-01-27T09:04:13.674Z,102111
2018-01-27T09:06:43.516Z,102108
2018-01-27T09:09:13.393Z,102104
2018-01-27T09:11:43.230Z,102108
2018-01-27T09:14:13.110Z,102114
2018-01-27T09:16:42.948Z,102102
2018-01-27T09:19:12.847Z,102105
2018-01-27T09:21:42.709Z,102125
2018-01-27T09:24:12.589Z,102103
2018-01-27T09:26:42.481Z,102105
2018-01-27T09:29:12.354Z,102117
2018-01-27T09:31:42.302Z,102114
2018-01-27T09:34:12.161Z,102114
2018-01-27T09:36:42.053Z,102105
2018-01-27T09:39:12.138Z,102114
2018-01-27T09:41:42.096Z,102111
2018-01-27T09:44:11.929Z,102122
2018-01-27T09:46:41.848Z,102129
2018-01-27T09:49:11.742Z,102128
2018-01-27T09:51:41.594Z,102122
2018-01-27T09:54:11.454Z,102127
2018-01-27T09:56:41.306Z,102121
2018-01-27T09:59:11.348Z,102125
2018-01-27T10:01:41.204Z,102153
2018-01-27T10:04:11.094Z,102149
2018-01-27T10:06:41.093Z,102147
2018-01-27T10:09:11.136Z,102139
2018-01-27T10:11:40.974Z,102159
2018-01-27T10:14:10.858Z,102147
2018-01-27T10:16:40.683Z,102148
2018-01-27T10:19:10.583Z,102130
2018-01-27T10:21:40.467Z,102117
2018-01-27T10:24:10.442Z,102115
2018-01-27T10:26:40.319Z,102121
2018-01-27T10:29:10.931Z,102121
2018-01-27T10:31:40.811Z,102122
2018-01-27T10:34:10.663Z,102120
2018-01-27T10:36:40.500Z,102120
2018-01-27T10:39:10.361Z,102118
2018-01-27T10:41:40.202Z,102126
2018-01-27T10:44:10.158Z,102130
2018-01-27T10:46:40.000Z,102135
2018-01-27T10:49:09.896Z,102134
2018-01-27T10:51:39.775Z,102067
2018-01-27T10:54:09.654Z,102120
2018-01-27T10:56:39.493Z,102115
2018-01-27T10:59:09.346Z,102120
2018-01-27T11:01:39.585Z,102122
2018-01-27T11:04:09.559Z,102116
2018-01-27T11:06:39.484Z,102113
2018-01-27T11:09:09.471Z,102119
2018-01-27T11:11:39.376Z,102110
2018-01-27T11:14:09.250Z,102108
2018-01-27T11:16:42.808Z,102109
2018-01-27T11:19:12.677Z,102106
2018-01-27T11:21:42.570Z,102099
2018-01-27T11:24:12.406Z,102098
2018-01-27T11:26:42.306Z,102091
2018-01-27T11:29:12.176Z,102098
2018-01-27T11:31:42.078Z,102108
2018-01-27T11:34:12.098Z,102110
2018-01-27T11:36:41.986Z,102108
2018-01-27T11:39:11.967Z,102104
2018-01-27T11:41:41.824Z,102094
2018-01-27T11:44:11.814Z,102085
2018-01-27T11:46:41.713Z,102085
2018-01-27T11:49:11.572Z,102086
2018-01-27T11:51:41.587Z,102083
2018-01-27T11:54:11.484Z,102089
2018-01-27T11:56:41.431Z,102097
2018-01-27T11:59:11.383Z,102095
2018-01-27T12:01:41.308Z,102092
2018-01-27T12:04:12.078Z,102098
2018-01-27T12:06:42.077Z,102078
2018-01-27T12:09:12.054Z,102088
2018-01-27T12:11:42.114Z,102087
2018-01-27T12:14:11.983Z,102089
2018-01-27T12:16:41.858Z,102091
2018-01-27T12:19:11.797Z,102081
2018-01-27T12:21:41.745Z,102084
2018-01-27T12:24:11.700Z,102074
2018-01-27T12:26:41.583Z,102077
2018-01-27T12:29:11.489Z,102074
2018-01-27T12:31:41.359Z,102072
2018-01-27T12:34:14.093Z,102071
2018-01-27T12:36:43.995Z,102069
2018-01-27T12:39:13.922Z,102061
2018-01-27T12:41:43.763Z,102052
2018-01-27T12:44:13.745Z,102055
2018-01-27T12:46:43.750Z,102039
2018-01-27T12:49:14.322Z,102037
2018-01-27T12:51:44.169Z,102037
2018-01-27T12:54:14.046Z,102042
2018-01-27T12:56:43.894Z,102042
2018-01-27T12:59:14.109Z,102032
2018-01-27T13:01:43.973Z,102037
2018-01-27T13:04:13.884Z,102029
2018-01-27T13:06:43.802Z,102023
2018-01-27T13:09:13.774Z,102029
2018-01-27T13:11:43.789Z,102017
2018-01-27T13:14:13.703Z,102029
2018-01-27T13:16:43.528Z,102028
2018-01-27T13:19:13.421Z,102026
2018-01-27T13:21:43.314Z,102028
2018-01-27T13:24:13.197Z,102025
2018-01-27T13:26:43.136Z,102024
2018-01-27T13:29:12.976Z,102029
2018-01-27T13:31:42.891Z,102025
2018-01-27T13:34:12.781Z,102018
2018-01-27T13:36:42.740Z,102008
2018-01-27T13:39:12.654Z,102009
2018-01-27T13:41:42.546Z,102005
2018-01-27T13:44:12.450Z,102000
2018-01-27T13:46:42.336Z,101995
2018-01-27T13:49:12.270Z,101986
2018-01-27T13:51:42.164Z,101991
2018-01-27T13:54:12.135Z,101997
2018-01-27T13:56:42.014Z,101995
2018-01-27T13:59:11.946Z,101998
2018-01-27T14:01:41.794Z,102007
2018-01-27T14:04:11.685Z,102014
2018-01-27T14:06:41.621Z,102014
2018-01-27T14:09:11.505Z,102016
2018-01-27T14:11:41.374Z,102010
2018-01-27T14:14:11.314Z,102005
2018-01-27T14:16:41.210Z,102013
2018-01-27T14:19:11.290Z,102011
2018-01-27T14:21:41.237Z,102011
2018-01-27T14:24:11.032Z,102008
2018-01-27T14:26:40.925Z,102001
2018-01-27T14:29:10.917Z,102002
2018-01-27T14:31:41.065Z,102008
2018-01-27T14:34:10.949Z,102005
2018-01-27T14:36:41.699Z,101990
2018-01-27T14:39:11.555Z,101995
2018-01-27T14:41:41.428Z,101986
2018-01-27T14:44:11.531Z,101969
2018-01-27T14:46:41.526Z,102004
2018-01-27T14:49:11.478Z,101973
2018-01-27T14:51:41.370Z,101964
2018-01-27T14:54:11.274Z,101962
2018-01-27T14:56:41.221Z,101954
2018-01-27T14:59:11.070Z,101958
2018-01-27T15:01:40.943Z,101939
2018-01-27T15:04:10.866Z,101813
2018-01-27T15:06:40.771Z,101936
2018-01-27T15:09:10.639Z,101927
2018-01-27T15:11:45.154Z,101932
2018-01-27T15:14:15.424Z,101930
2018-01-27T15:16:46.194Z,101928
2018-01-27T15:19:17.734Z,101926
2018-01-27T15:21:47.827Z,101934
2018-01-27T15:24:17.721Z,101871
2018-01-27T15:26:47.580Z,101924
2018-01-27T15:29:17.613Z,101932
2018-01-27T15:31:47.530Z,101909
2018-01-27T15:34:17.499Z,101763
2018-01-27T15:36:48.629Z,101712
2018-01-27T15:39:18.662Z,101899
2018-01-27T15:41:48.615Z,101903
2018-01-27T15:44:18.519Z,101892
2018-01-27T15:46:48.399Z,101827
2018-01-27T15:49:18.252Z,101890
2018-01-27T15:51:48.225Z,101899
2018-01-27T15:54:18.553Z,101900
2018-01-27T15:56:50.347Z,101904
2018-01-27T15:59:20.338Z,101891
2018-01-27T16:01:53.807Z,101912
2018-01-27T16:04:48.796Z,101906
2018-01-27T16:07:27.673Z,101900
2018-01-27T16:10:08.042Z,101896
2018-01-27T16:15:31.905Z,101873
2018-01-27T16:35:28.478Z,101842
2018-01-27T16:37:58.393Z,101855
2018-01-27T16:40:28.292Z,101851
2018-01-27T16:42:58.261Z,101853
2018-01-27T16:45:28.307Z,101840
2018-01-27T16:47:58.234Z,101833
2018-01-27T16:50:30.217Z,101525
2018-01-27T16:53:00.114Z,101826
2018-01-27T16:55:37.520Z,101805
2018-01-27T16:58:54.626Z,101801
2018-01-27T17:07:17.805Z,101784
2018-01-27T17:12:57.482Z,101788
2018-01-27T17:27:46.333Z,101758
2018-01-27T17:30:19.013Z,101738
2018-01-27T17:33:05.204Z,101731
2018-01-27T17:35:35.126Z,101714
2018-01-27T17:38:05.025Z,101718
2018-01-27T17:40:34.963Z,101711
2018-01-27T17:43:04.823Z,101726
2018-01-27T17:45:35.003Z,101715
2018-01-27T17:51:20.085Z,101730
2018-01-27T17:53:50.036Z,101723
2018-01-27T17:56:20.114Z,101734
2018-01-27T17:58:49.961Z,101741
2018-01-27T18:04:48.380Z,101699
2018-01-27T18:07:18.691Z,101713
2018-01-27T18:09:48.567Z,101709
2018-01-27T18:12:18.515Z,101719
2018-01-27T18:14:48.670Z,101702
2018-01-27T18:17:18.537Z,101687
2018-01-27T18:19:48.472Z,101672
2018-01-27T18:22:18.341Z,101672
2018-01-27T18:24:48.265Z,101680
2018-01-27T18:27:18.140Z,101682
2018-01-27T18:29:48.213Z,101675
2018-01-27T18:32:18.087Z,101651
2018-01-27T18:34:48.033Z,101648
2018-01-27T18:37:17.886Z,101652
2018-01-27T18:39:47.763Z,101639
2018-01-27T18:42:17.672Z,101632
2018-01-27T18:44:47.645Z,101634
2018-01-27T18:47:17.510Z,101635
2018-01-27T18:49:47.375Z,101609
2018-01-27T18:52:17.373Z,101595
2018-01-27T18:54:47.316Z,101596
2018-01-27T18:57:17.252Z,101582
2018-01-27T18:59:47.122Z,101572
2018-01-27T19:02:17.001Z,101563
2018-01-27T19:04:47.251Z,101561
2018-01-27T19:07:17.129Z,101571
2018-01-27T19:09:46.978Z,101579
2018-01-27T19:12:16.839Z,101592
2018-01-27T19:14:47.469Z,101590
2018-01-27T19:17:17.380Z,101580
2018-01-27T19:19:47.379Z,101591
2018-01-27T19:22:17.272Z,101567
2018-01-27T19:24:47.181Z,101568
2018-01-27T19:27:17.199Z,101548
2018-01-27T19:29:47.215Z,101537
2018-01-27T19:32:17.134Z,101546
2018-01-27T19:34:46.986Z,101538
2018-01-27T19:37:16.878Z,101521
2018-01-27T19:39:46.894Z,101505
2018-01-27T19:42:16.949Z,101519
2018-01-27T19:44:46.888Z,101505
2018-01-27T19:47:16.796Z,101493
2018-01-27T19:49:46.665Z,101503
2018-01-27T19:52:16.703Z,101519
2018-01-27T19:54:46.555Z,101519
2018-01-27T19:57:16.476Z,101513
2018-01-27T19:59:46.440Z,101504
2018-01-27T20:02:16.431Z,101487
2018-01-27T20:04:46.589Z,101481
2018-01-27T20:07:16.571Z,101487
2018-01-27T20:09:46.642Z,101476
2018-01-27T20:12:16.537Z,101477
2018-01-27T20:14:47.307Z,101496
2018-01-27T20:17:17.323Z,101479
2018-01-27T20:19:47.279Z,101464
2018-01-27T20:22:21.876Z,101111
2018-01-27T20:24:52.132Z,101471
2018-01-27T20:27:22.163Z,101462
2018-01-27T20:29:52.285Z,101473
2018-01-27T20:32:22.719Z,101479
2018-01-27T20:34:52.921Z,101481
2018-01-27T20:37:22.893Z,101482
2018-01-27T20:39:53.021Z,101461
2018-01-27T20:42:23.266Z,101451
2018-01-27T20:44:53.230Z,101458
2018-01-27T20:47:23.242Z,101437
2018-01-27T20:49:53.504Z,101282
2018-01-27T20:52:23.541Z,101437
2018-01-27T20:54:53.434Z,101431
2018-01-27T20:57:23.344Z,101421
2018-01-27T20:59:53.239Z,101396
2018-01-27T21:02:23.195Z,101395
2018-01-27T21:04:53.122Z,101387
2018-01-27T21:07:22.994Z,101382
2018-01-27T21:09:53.026Z,101363
2018-01-27T21:12:23.048Z,101355
2018-01-27T21:14:53.282Z,101359
2018-01-27T21:17:23.211Z,101375
2018-01-27T21:19:53.125Z,101373
2018-01-27T21:22:23.001Z,101374
2018-01-27T21:24:53.075Z,101378
2018-01-27T21:27:23.010Z,101366
2018-01-27T21:29:52.905Z,101333
2018-01-27T21:32:22.823Z,101338
2018-01-27T21:34:53.082Z,101337
2018-01-27T21:37:23.209Z,101348
2018-01-27T21:39:53.111Z,101345
2018-01-27T21:42:22.961Z,101325
2018-01-27T21:44:52.929Z,101321
2018-01-27T21:47:22.900Z,101326
2018-01-27T21:49:52.813Z,101329
2018-01-27T21:52:22.711Z,101324
2018-01-27T21:54:52.689Z,101309
2018-01-27T21:57:22.721Z,101294
2018-01-27T21:59:53.716Z,101279
2018-01-27T22:02:23.606Z,101285
2018-01-27T22:04:53.831Z,101291
2018-01-27T22:07:23.681Z,101277
2018-01-27T22:09:53.521Z,101285
2018-01-27T22:12:23.370Z,101284
2018-01-27T22:14:53.648Z,101275
2018-01-27T22:17:23.559Z,101272
2018-01-27T22:19:53.497Z,101277
2018-01-27T22:22:23.354Z,101289
2018-01-27T22:24:53.556Z,101263
2018-01-27T22:27:23.541Z,101298
2018-01-27T22:29:53.407Z,101269
2018-01-27T22:32:23.430Z,101245
2018-01-27T22:34:53.444Z,101242
2018-01-27T22:37:23.357Z,101238
2018-01-27T22:39:53.250Z,101224
2018-01-27T22:42:23.268Z,101223
2018-01-27T22:44:53.529Z,101224
2018-01-27T22:47:23.456Z,101229
2018-01-27T22:49:53.289Z,101236
2018-01-27T22:52:23.252Z,101215
2018-01-27T22:54:54.224Z,101203
2018-01-27T22:57:24.184Z,101218
2018-01-27T22:59:54.040Z,101211
2018-01-27T23:02:24.111Z,101205
2018-01-27T23:04:54.123Z,101207
2018-01-27T23:07:24.015Z,101188
2018-01-27T23:09:53.931Z,101194
2018-01-27T23:12:23.826Z,101186
2018-01-27T23:14:54.121Z,101183
2018-01-27T23:17:23.988Z,101176
2018-01-27T23:19:53.815Z,101169
2018-01-27T23:22:23.753Z,101173
2018-01-27T23:24:53.711Z,101164
2018-01-27T23:27:23.579Z,101164
2018-01-27T23:29:53.485Z,101153
2018-01-27T23:32:23.332Z,101141
2018-01-27T23:34:53.250Z,101135
2018-01-27T23:37:23.086Z,101138
2018-01-27T23:39:52.996Z,101151
2018-01-27T23:42:22.834Z,101145
2018-01-27T23:44:52.701Z,101144
2018-01-27T23:47:22.548Z,101134
2018-01-27T23:49:52.458Z,101117
2018-01-27T23:52:22.287Z,101108
2018-01-27T23:54:52.225Z,101102
2018-01-27T23:57:22.106Z,101119
2018-01-27T23:59:51.957Z,101129
